createdAt,value
2019-03-27T00:01:16.112Z,7.42
2019-03-27T00:03:49.304Z,7.33
2019-03-27T00:06:21.063Z,5.55
2019-03-27T00:08:51.258Z,5.65
2019-03-27T00:11:21.818Z,7.17
2019-03-27T00:13:56.522Z,6.55
2019-03-27T00:16:26.658Z,6.15
2019-03-27T00:18:56.866Z,7.25
2019-03-27T00:21:32.313Z,7.03
2019-03-27T00:24:05.795Z,5.80
2019-03-27T00:26:39.051Z,4.08
2019-03-27T00:29:12.022Z,9.63
2019-03-27T00:31:42.425Z,6.70
2019-03-27T00:34:12.515Z,4.67
2019-03-27T00:36:42.689Z,3.70
2019-03-27T00:39:13.067Z,8.03
2019-03-27T00:41:43.279Z,7.45
2019-03-27T00:44:13.706Z,4.87
2019-03-27T00:46:43.946Z,7.72
2019-03-27T00:49:18.718Z,5.25
2019-03-27T00:51:48.810Z,4.80
2019-03-27T00:54:19.014Z,4.17
2019-03-27T00:56:50.766Z,6.03
2019-03-27T00:59:20.907Z,6.53
2019-03-27T01:01:51.027Z,3.45
2019-03-27T01:04:22.891Z,5.90
2019-03-27T01:06:53.258Z,6.33
2019-03-27T01:09:24.780Z,3.87
2019-03-27T01:11:55.033Z,4.70
2019-03-27T01:14:28.294Z,3.20
2019-03-27T01:16:59.983Z,3.65
2019-03-27T01:19:32.083Z,6.08
2019-03-27T01:22:03.168Z,4.55
2019-03-27T01:24:33.389Z,4.40
2019-03-27T01:27:03.524Z,5.10
2019-03-27T01:29:35.132Z,5.55
2019-03-27T01:32:08.049Z,3.50
2019-03-27T01:34:38.290Z,2.37
2019-03-27T01:37:08.951Z,5.22
2019-03-27T01:39:39.143Z,3.40
2019-03-27T01:42:09.137Z,4.62
2019-03-27T01:44:41.060Z,3.70
2019-03-27T01:47:11.166Z,3.17
2019-03-27T01:49:41.217Z,3.75
2019-03-27T01:52:14.821Z,4.17
2019-03-27T01:54:46.431Z,4.92
2019-03-27T01:57:16.518Z,4.00
2019-03-27T01:59:47.238Z,5.50
2019-03-27T02:02:17.554Z,6.00
2019-03-27T02:04:47.673Z,4.17
2019-03-27T02:07:17.762Z,4.40
2019-03-27T02:09:47.991Z,3.40
2019-03-27T02:12:21.152Z,3.35
2019-03-27T02:14:52.887Z,4.87
2019-03-27T02:17:23.015Z,3.72
2019-03-27T02:19:54.914Z,5.15
2019-03-27T02:22:26.619Z,6.15
2019-03-27T02:24:56.718Z,5.28
2019-03-27T02:27:26.739Z,4.78
2019-03-27T02:29:59.726Z,4.30
2019-03-27T02:32:30.048Z,5.67
2019-03-27T02:35:00.218Z,5.50
2019-03-27T02:37:32.171Z,7.47
2019-03-27T02:40:06.643Z,5.58
2019-03-27T02:42:36.695Z,4.80
2019-03-27T02:45:07.473Z,4.28
2019-03-27T02:47:39.222Z,7.58
2019-03-27T02:50:11.153Z,6.05
2019-03-27T02:52:41.286Z,7.30
2019-03-27T02:55:11.646Z,4.03
2019-03-27T02:57:41.951Z,4.85
2019-03-27T03:00:13.272Z,7.30
2019-03-27T03:02:43.547Z,4.25
2019-03-27T03:05:14.368Z,4.92
2019-03-27T03:07:44.668Z,10.68
2019-03-27T03:10:19.679Z,5.10
2019-03-27T03:12:49.808Z,5.35
2019-03-27T03:15:22.341Z,7.08
2019-03-27T03:17:54.111Z,5.92
2019-03-27T03:20:25.000Z,6.65
2019-03-27T03:22:58.225Z,7.53
2019-03-27T03:25:30.842Z,5.92
2019-03-27T03:28:20.422Z,4.83
2019-03-27T03:30:51.023Z,6.10
2019-03-27T03:33:23.164Z,5.50
2019-03-27T03:35:53.516Z,5.75
2019-03-27T03:38:23.813Z,5.33
2019-03-27T03:40:54.270Z,6.67
2019-03-27T03:43:24.595Z,4.55
2019-03-27T03:45:55.096Z,5.25
2019-03-27T03:48:26.983Z,5.05
2019-03-27T03:51:00.163Z,7.22
2019-03-27T03:53:31.008Z,5.22
2019-03-27T03:56:02.859Z,5.15
2019-03-27T03:58:36.879Z,4.65
2019-03-27T04:01:07.519Z,9.60
2019-03-27T04:03:39.680Z,5.55
2019-03-27T04:06:10.312Z,9.68
2019-03-27T04:08:41.048Z,5.75
2019-03-27T04:11:28.677Z,4.97
2019-03-27T04:13:59.002Z,10.20
2019-03-27T04:19:20.127Z,7.25
2019-03-27T04:21:50.847Z,6.20
2019-03-27T04:24:21.289Z,6.97
2019-03-27T04:26:51.829Z,5.37
2019-03-27T04:29:22.254Z,6.62
2019-03-27T04:31:52.874Z,6.28
2019-03-27T04:34:26.049Z,6.15
2019-03-27T04:36:56.500Z,5.78
2019-03-27T04:39:27.022Z,6.62
2019-03-27T04:41:59.087Z,6.85
2019-03-27T04:44:29.514Z,6.87
2019-03-27T04:47:06.637Z,9.38
2019-03-27T04:49:38.402Z,9.70
2019-03-27T04:52:08.432Z,7.60
2019-03-27T04:54:38.557Z,5.10
2019-03-27T04:57:28.178Z,6.47
2019-03-27T04:59:58.231Z,7.50
2019-03-27T05:02:28.626Z,7.35
2019-03-27T05:04:59.158Z,8.18
2019-03-27T05:07:30.921Z,9.33
2019-03-27T05:10:01.042Z,8.13
2019-03-27T05:12:32.557Z,7.22
2019-03-27T05:15:05.312Z,9.73
2019-03-27T05:17:45.329Z,6.22
2019-03-27T05:20:10.328Z,21.70
2019-03-27T05:22:40.563Z,32.10
2019-03-27T05:25:14.023Z,17.00
2019-03-27T05:27:44.198Z,15.28
2019-03-27T05:30:18.650Z,8.60
2019-03-27T05:32:48.862Z,10.95
2019-03-27T05:35:21.327Z,17.92
2019-03-27T05:37:51.638Z,9.77
2019-03-27T05:40:21.830Z,7.83
2019-03-27T05:43:00.455Z,6.72
2019-03-27T05:45:24.182Z,7.50
2019-03-27T05:47:59.848Z,9.33
2019-03-27T05:50:26.038Z,9.48
2019-03-27T05:52:58.406Z,11.12
2019-03-27T05:55:28.567Z,8.45
2019-03-27T05:57:58.891Z,9.63
2019-03-27T06:00:33.180Z,8.45
2019-03-27T06:03:01.767Z,8.40
2019-03-27T06:05:51.175Z,7.47
2019-03-27T06:08:22.379Z,9.70
2019-03-27T06:10:52.428Z,9.75
2019-03-27T06:13:23.647Z,8.45
2019-03-27T06:15:53.696Z,8.60
2019-03-27T06:18:28.935Z,12.30
2019-03-27T06:20:59.037Z,12.07
2019-03-27T06:23:29.299Z,6.70
2019-03-27T06:26:00.589Z,7.65
2019-03-27T06:28:30.870Z,11.03
2019-03-27T06:31:01.544Z,6.28
2019-03-27T06:33:34.824Z,7.67
2019-03-27T06:36:05.325Z,7.05
2019-03-27T06:38:36.662Z,9.60
2019-03-27T06:41:08.598Z,9.45
2019-03-27T06:43:38.719Z,10.10
2019-03-27T06:46:10.854Z,9.53
2019-03-27T06:48:41.032Z,11.48
2019-03-27T06:51:39.231Z,11.22
2019-03-27T06:53:58.560Z,9.90
2019-03-27T06:56:29.141Z,13.18
2019-03-27T06:58:59.464Z,15.10
2019-03-27T07:04:10.703Z,16.32
2019-03-27T07:06:38.938Z,11.68
2019-03-27T07:09:09.885Z,15.85
2019-03-27T07:11:41.326Z,11.00
2019-03-27T07:14:13.394Z,10.38
2019-03-27T07:16:43.820Z,10.25
2019-03-27T07:19:14.349Z,13.18
2019-03-27T07:21:48.152Z,12.28
2019-03-27T07:24:18.681Z,12.78
2019-03-27T07:26:50.955Z,14.95
2019-03-27T07:29:21.484Z,10.72
2019-03-27T07:31:51.907Z,7.97
2019-03-27T07:34:22.436Z,12.10
2019-03-27T07:36:56.049Z,9.28
2019-03-27T07:39:24.929Z,6.58
2019-03-27T07:41:55.365Z,8.80
2019-03-27T07:44:27.215Z,9.45
2019-03-27T07:46:59.899Z,10.20
2019-03-27T07:49:31.755Z,6.78
2019-03-27T07:52:02.181Z,11.12
2019-03-27T07:54:32.712Z,7.97
2019-03-27T07:57:03.244Z,8.73
2019-03-27T07:59:38.175Z,6.80
2019-03-27T08:02:08.496Z,7.37
2019-03-27T08:04:38.925Z,8.15
2019-03-27T08:07:09.247Z,5.72
2019-03-27T08:09:39.782Z,5.80
2019-03-27T08:12:19.031Z,7.85
2019-03-27T08:14:52.413Z,7.90
2019-03-27T08:17:22.731Z,7.30
2019-03-27T08:19:53.259Z,5.42
2019-03-27T08:22:23.584Z,9.78
2019-03-27T08:24:55.650Z,5.65
2019-03-27T08:27:26.146Z,5.85
2019-03-27T08:29:56.605Z,9.58
2019-03-27T08:32:28.056Z,7.25
2019-03-27T08:34:58.483Z,6.62
2019-03-27T08:37:29.114Z,7.47
2019-03-27T08:40:23.869Z,5.92
2019-03-27T08:42:56.033Z,7.92
2019-03-27T08:45:26.456Z,6.10
2019-03-27T08:47:56.779Z,9.13
2019-03-27T08:50:31.301Z,4.83
2019-03-27T08:53:04.905Z,11.18
2019-03-27T08:55:35.432Z,8.48
2019-03-27T08:58:05.981Z,6.60
2019-03-27T09:00:47.759Z,10.65
2019-03-27T09:03:18.478Z,7.95
2019-03-27T09:05:49.483Z,11.55
2019-03-27T09:08:19.947Z,6.75
2019-03-27T09:10:51.304Z,5.20
2019-03-27T09:13:21.629Z,6.00
2019-03-27T09:15:51.952Z,9.95
2019-03-27T09:18:25.764Z,9.53
2019-03-27T09:20:58.132Z,5.55
2019-03-27T09:23:30.708Z,6.00
2019-03-27T09:26:01.032Z,6.73
2019-03-27T09:28:31.563Z,4.72
2019-03-27T09:31:01.989Z,4.85
2019-03-27T09:33:33.860Z,7.55
2019-03-27T09:36:05.467Z,4.92
2019-03-27T09:38:37.676Z,10.63
2019-03-27T09:41:07.996Z,4.90
2019-03-27T09:43:40.471Z,6.20
2019-03-27T09:49:05.903Z,8.05
2019-03-27T09:51:37.455Z,7.33
2019-03-27T09:54:09.417Z,9.28
2019-03-27T09:56:39.848Z,6.50
2019-03-27T09:59:10.374Z,8.10
2019-03-27T10:01:42.644Z,5.85
2019-03-27T10:04:12.968Z,5.47
2019-03-27T10:06:43.498Z,5.78
2019-03-27T10:09:13.929Z,7.60
2019-03-27T10:11:44.559Z,8.50
2019-03-27T10:14:14.994Z,5.97
2019-03-27T10:16:48.185Z,7.30
2019-03-27T10:19:20.150Z,6.20
2019-03-27T10:21:50.667Z,8.75
2019-03-27T10:24:21.093Z,7.60
2019-03-27T10:26:52.248Z,7.03
2019-03-27T10:29:26.759Z,8.68
2019-03-27T10:31:57.595Z,6.60
2019-03-27T10:34:28.022Z,8.18
2019-03-27T10:36:58.448Z,7.83
2019-03-27T10:39:31.742Z,7.92
2019-03-27T10:42:02.477Z,6.30
2019-03-27T10:44:32.967Z,8.30
2019-03-27T10:47:09.385Z,7.50
2019-03-27T10:49:40.003Z,9.33
2019-03-27T10:52:11.437Z,6.37
2019-03-27T10:54:44.737Z,5.83
2019-03-27T10:57:15.278Z,8.15
2019-03-27T10:59:48.780Z,7.75
2019-03-27T11:04:48.802Z,7.35
2019-03-27T11:07:21.024Z,6.55
2019-03-27T11:09:51.332Z,7.65
2019-03-27T11:12:21.633Z,5.85
2019-03-27T11:14:51.899Z,8.78
2019-03-27T11:17:22.124Z,7.97
2019-03-27T11:19:52.435Z,8.45
2019-03-27T11:22:23.257Z,6.65
2019-03-27T11:24:55.027Z,7.05
2019-03-27T11:27:25.327Z,9.40
2019-03-27T11:29:55.640Z,8.08
2019-03-27T11:32:28.875Z,7.97
2019-03-27T11:34:59.167Z,8.33
2019-03-27T11:37:29.341Z,9.03
2019-03-27T11:39:59.801Z,7.05
2019-03-27T11:42:29.903Z,8.78
2019-03-27T11:45:00.350Z,9.08
2019-03-27T11:47:32.048Z,8.75
2019-03-27T11:50:03.566Z,8.00
2019-03-27T11:52:39.680Z,8.75
2019-03-27T11:55:10.157Z,9.00
2019-03-27T11:57:41.633Z,6.83
2019-03-27T12:00:14.258Z,8.30
2019-03-27T12:02:44.476Z,6.60
2019-03-27T12:05:17.703Z,8.00
2019-03-27T12:07:47.787Z,7.35
2019-03-27T12:10:18.072Z,10.53
2019-03-27T12:12:48.564Z,6.97
2019-03-27T12:15:21.673Z,6.33
2019-03-27T12:18:22.762Z,7.90
2019-03-27T12:20:58.768Z,6.72
2019-03-27T12:23:25.776Z,7.35
2019-03-27T12:25:56.480Z,7.28
2019-03-27T12:28:26.594Z,7.70
2019-03-27T12:30:56.893Z,8.00
2019-03-27T12:33:26.994Z,7.53
2019-03-27T12:35:57.184Z,8.15
2019-03-27T12:38:27.475Z,8.43
2019-03-27T12:40:57.573Z,9.10
2019-03-27T12:43:29.473Z,9.28
2019-03-27T12:45:59.761Z,6.45
2019-03-27T12:48:29.916Z,11.53
2019-03-27T12:51:12.284Z,8.00
2019-03-27T12:53:33.605Z,6.85
2019-03-27T12:56:05.397Z,9.68
2019-03-27T12:58:35.742Z,9.48
2019-03-27T13:01:08.376Z,10.58
2019-03-27T13:03:38.512Z,11.20
2019-03-27T13:06:08.609Z,7.92
2019-03-27T13:08:38.776Z,8.70
2019-03-27T13:11:08.889Z,8.95
2019-03-27T13:13:39.123Z,14.85
2019-03-27T13:16:09.349Z,9.58
2019-03-27T13:18:39.543Z,8.50
2019-03-27T13:21:09.800Z,8.88
2019-03-27T13:23:39.916Z,9.68
2019-03-27T13:26:11.684Z,11.50
2019-03-27T13:31:35.903Z,9.43
2019-03-27T13:34:06.421Z,7.35
2019-03-27T13:36:38.388Z,8.40
2019-03-27T13:39:08.810Z,11.57
2019-03-27T13:41:39.241Z,8.03
2019-03-27T13:44:13.042Z,10.43
2019-03-27T13:46:43.586Z,10.40
2019-03-27T13:49:14.000Z,10.10
2019-03-27T13:51:45.871Z,7.87
2019-03-27T13:54:16.391Z,14.73
2019-03-27T13:56:46.714Z,9.05
2019-03-27T13:59:17.348Z,9.38
2019-03-27T14:01:47.850Z,8.40
2019-03-27T14:04:18.302Z,8.00
2019-03-27T14:06:50.265Z,9.70
2019-03-27T14:09:20.884Z,8.90
2019-03-27T14:11:51.222Z,7.33
2019-03-27T14:14:21.646Z,8.83
2019-03-27T14:16:52.073Z,11.25
2019-03-27T14:19:22.398Z,6.97
2019-03-27T14:21:55.043Z,8.88
2019-03-27T14:24:25.096Z,7.80
2019-03-27T14:26:55.523Z,8.35
2019-03-27T14:29:25.951Z,6.80
2019-03-27T14:31:56.277Z,9.80
2019-03-27T14:34:27.520Z,9.05
2019-03-27T14:36:57.947Z,8.15
2019-03-27T14:39:28.377Z,8.63
2019-03-27T14:41:58.699Z,8.00
2019-03-27T14:44:29.740Z,8.78
2019-03-27T14:47:00.268Z,8.08
2019-03-27T14:49:30.696Z,7.58
2019-03-27T14:52:08.367Z,7.75
2019-03-27T14:54:39.023Z,6.72
2019-03-27T14:57:10.474Z,8.05
2019-03-27T14:59:40.799Z,10.08
2019-03-27T15:02:12.147Z,8.78
2019-03-27T15:04:42.475Z,8.50
2019-03-27T15:07:12.795Z,7.53
2019-03-27T15:09:43.734Z,7.08
2019-03-27T15:12:14.164Z,6.67
2019-03-27T15:14:44.899Z,7.15
2019-03-27T15:17:15.428Z,11.68
2019-03-27T15:19:58.037Z,6.87
2019-03-27T15:22:28.568Z,9.90
2019-03-27T15:24:59.404Z,7.83
2019-03-27T15:27:30.040Z,9.00
2019-03-27T15:30:00.565Z,9.23
2019-03-27T15:32:30.991Z,8.15
2019-03-27T15:35:01.568Z,7.17
2019-03-27T15:37:32.274Z,7.37
2019-03-27T15:40:02.679Z,7.65
2019-03-27T15:42:33.444Z,7.10
2019-03-27T15:45:07.973Z,6.85
2019-03-27T15:47:38.363Z,11.48
2019-03-27T15:50:10.525Z,6.60
2019-03-27T15:52:40.855Z,8.05
2019-03-27T15:55:11.684Z,6.20
2019-03-27T15:57:42.220Z,7.25
2019-03-27T16:00:15.555Z,5.55
2019-03-27T16:02:46.043Z,6.78
2019-03-27T16:05:33.673Z,12.05
2019-03-27T16:08:06.966Z,6.53
2019-03-27T16:10:37.475Z,6.25
2019-03-27T16:13:08.127Z,7.37
2019-03-27T16:15:38.555Z,7.15
2019-03-27T16:18:29.653Z,7.00
2019-03-27T16:21:00.195Z,9.33
2019-03-27T16:23:32.289Z,7.55
2019-03-27T16:26:05.342Z,7.65
2019-03-27T16:28:35.692Z,9.43
2019-03-27T16:31:05.877Z,9.05
2019-03-27T16:33:36.567Z,8.83
2019-03-27T16:36:06.877Z,9.98
2019-03-27T16:38:37.237Z,9.23
2019-03-27T16:41:07.498Z,8.30
2019-03-27T16:43:37.807Z,9.65
2019-03-27T16:46:12.058Z,10.38
2019-03-27T16:48:42.391Z,7.72
2019-03-27T16:51:12.730Z,10.45
2019-03-27T16:53:43.030Z,10.03
2019-03-27T16:56:15.160Z,11.28
2019-03-27T16:58:45.421Z,7.90
2019-03-27T17:01:15.663Z,7.95
2019-03-27T17:03:45.972Z,8.05
2019-03-27T17:06:16.366Z,7.30
2019-03-27T17:08:46.664Z,10.03
2019-03-27T17:11:18.588Z,9.78
2019-03-27T17:13:48.821Z,9.20
2019-03-27T17:16:20.046Z,12.03
2019-03-27T17:18:50.368Z,9.50
2019-03-27T17:21:20.609Z,14.47
2019-03-27T17:23:50.802Z,10.78
2019-03-27T17:26:21.009Z,10.00
2019-03-27T17:28:52.610Z,10.10
2019-03-27T17:34:16.477Z,9.88
2019-03-27T17:36:51.039Z,13.25
2019-03-27T17:39:21.105Z,12.15
2019-03-27T17:42:11.506Z,11.10
2019-03-27T17:44:41.483Z,10.18
2019-03-27T17:47:15.147Z,9.40
2019-03-27T17:49:46.605Z,10.78
2019-03-27T17:52:22.847Z,10.93
2019-03-27T17:54:53.195Z,12.90
2019-03-27T17:57:23.708Z,11.15
2019-03-27T17:59:53.847Z,18.32
2019-03-27T18:02:24.355Z,12.13
2019-03-27T18:04:55.631Z,24.27
2019-03-27T18:07:26.973Z,20.25
2019-03-27T18:10:06.704Z,12.30
2019-03-27T18:12:38.515Z,19.80
2019-03-27T18:15:09.329Z,59.08
2019-03-27T18:17:39.533Z,22.25
2019-03-27T18:20:11.144Z,18.87
2019-03-27T18:22:43.367Z,21.45
2019-03-27T18:25:14.871Z,18.73
2019-03-27T18:27:46.736Z,20.60
2019-03-27T18:30:20.724Z,18.25
2019-03-27T18:32:51.325Z,16.75
2019-03-27T18:35:21.619Z,15.98
2019-03-27T18:37:52.835Z,19.48
2019-03-27T18:40:23.126Z,16.48
2019-03-27T18:42:53.480Z,21.55
2019-03-27T18:45:23.858Z,19.20
2019-03-27T18:47:55.559Z,25.72
2019-03-27T18:50:25.778Z,22.15
2019-03-27T18:52:56.090Z,22.55
2019-03-27T18:55:27.132Z,16.82
2019-03-27T18:58:00.399Z,18.12
2019-03-27T19:00:29.996Z,18.73
2019-03-27T19:03:02.265Z,17.45
2019-03-27T19:05:33.922Z,25.12
2019-03-27T19:08:04.299Z,71.60
2019-03-27T19:10:34.908Z,18.90
2019-03-27T19:13:06.516Z,23.15
2019-03-27T19:15:36.666Z,18.40
2019-03-27T19:18:08.073Z,15.38
2019-03-27T19:20:39.313Z,19.42
2019-03-27T19:23:10.977Z,15.60
2019-03-27T19:25:41.300Z,13.72
2019-03-27T19:28:11.321Z,20.17
2019-03-27T19:30:41.757Z,20.40
2019-03-27T19:33:12.208Z,18.85
2019-03-27T19:35:42.420Z,16.80
2019-03-27T19:38:12.583Z,15.45
2019-03-27T19:40:43.782Z,22.70
2019-03-27T19:43:14.413Z,18.70
2019-03-27T19:45:49.043Z,22.45
2019-03-27T19:48:19.344Z,21.05
2019-03-27T19:50:51.661Z,21.07
2019-03-27T19:53:25.450Z,25.23
2019-03-27T19:55:56.383Z,25.48
2019-03-27T19:58:26.923Z,52.03
2019-03-27T20:00:57.658Z,23.98
2019-03-27T20:03:27.866Z,25.00
2019-03-27T20:05:59.954Z,22.00
2019-03-27T20:08:30.763Z,30.48
2019-03-27T20:11:01.325Z,26.25
2019-03-27T20:13:31.689Z,31.33
2019-03-27T20:16:03.338Z,27.82
2019-03-27T20:18:33.749Z,25.30
2019-03-27T20:21:03.988Z,23.45
2019-03-27T20:23:36.147Z,22.07
2019-03-27T20:26:06.290Z,24.75
2019-03-27T20:28:36.765Z,55.58
2019-03-27T20:31:07.220Z,23.12
2019-03-27T20:33:38.299Z,25.82
2019-03-27T20:36:12.937Z,26.48
2019-03-27T20:38:41.687Z,55.95
2019-03-27T20:41:23.187Z,28.32
2019-03-27T20:43:53.900Z,54.35
2019-03-27T20:46:27.729Z,22.95
2019-03-27T20:48:59.467Z,25.48
2019-03-27T20:51:31.228Z,25.23
2019-03-27T20:54:04.308Z,45.48
2019-03-27T20:56:34.952Z,35.90
2019-03-27T20:59:05.149Z,26.85
2019-03-27T21:01:35.311Z,22.82
2019-03-27T21:04:07.693Z,17.87
2019-03-27T21:06:37.852Z,28.67
2019-03-27T21:09:08.345Z,23.07
2019-03-27T21:11:40.510Z,22.70
2019-03-27T21:14:10.830Z,16.45
2019-03-27T21:16:43.311Z,22.25
2019-03-27T21:19:13.753Z,20.63
2019-03-27T21:21:44.109Z,19.27
2019-03-27T21:24:14.466Z,23.77
2019-03-27T21:26:45.838Z,18.75
2019-03-27T21:29:18.944Z,23.38
2019-03-27T21:31:49.146Z,18.15
2019-03-27T21:34:20.772Z,21.48
2019-03-27T21:36:52.191Z,17.87
2019-03-27T21:39:25.623Z,17.52
2019-03-27T21:41:58.147Z,18.10
2019-03-27T21:44:31.247Z,17.57
2019-03-27T21:47:01.487Z,24.07
2019-03-27T21:49:33.540Z,23.55
2019-03-27T21:52:03.651Z,23.47
2019-03-27T21:54:33.980Z,15.15
2019-03-27T21:57:04.410Z,16.70
2019-03-27T21:59:34.616Z,14.93
2019-03-27T22:02:08.819Z,16.25
2019-03-27T22:04:41.819Z,23.80
2019-03-27T22:07:12.140Z,16.82
2019-03-27T22:09:43.732Z,19.90
2019-03-27T22:12:18.661Z,16.17
2019-03-27T22:15:06.984Z,16.10
2019-03-27T22:17:51.231Z,18.52
2019-03-27T22:20:27.987Z,18.40
2019-03-27T22:22:58.142Z,18.35
2019-03-27T22:25:35.896Z,19.07
2019-03-27T22:28:00.170Z,19.00
2019-03-27T22:30:30.238Z,22.32
2019-03-27T22:33:00.331Z,18.07
2019-03-27T22:35:30.615Z,16.97
2019-03-27T22:38:00.821Z,16.77
2019-03-27T22:40:33.032Z,17.23
2019-03-27T22:43:03.127Z,15.40
2019-03-27T22:45:33.337Z,17.55
2019-03-27T22:48:03.637Z,15.95
2019-03-27T22:50:34.303Z,18.87
2019-03-27T22:53:04.537Z,17.80
2019-03-27T22:55:34.752Z,16.70
2019-03-27T22:58:04.842Z,16.45
2019-03-27T23:00:40.258Z,15.10
2019-03-27T23:03:18.119Z,14.33
2019-03-27T23:05:45.067Z,12.85
2019-03-27T23:08:17.590Z,17.35
2019-03-27T23:10:50.534Z,13.53
2019-03-27T23:13:21.639Z,11.28
2019-03-27T23:15:51.905Z,11.00
2019-03-27T23:18:22.004Z,13.90
2019-03-27T23:20:52.136Z,8.70
2019-03-27T23:23:23.706Z,9.70
2019-03-27T23:26:03.044Z,10.32
2019-03-27T23:28:28.390Z,9.93
2019-03-27T23:30:58.549Z,7.90
2019-03-27T23:33:28.623Z,9.70
2019-03-27T23:35:58.894Z,10.28
2019-03-27T23:38:29.102Z,9.93
2019-03-27T23:40:59.299Z,10.35
2019-03-27T23:43:30.792Z,8.85
2019-03-27T23:46:02.915Z,10.23
2019-03-27T23:48:35.637Z,8.88
2019-03-27T23:51:05.878Z,8.45
2019-03-27T23:53:44.343Z,12.07
2019-03-27T23:56:16.975Z,11.33
2019-03-27T23:58:46.306Z,9.40
